createdAt,value
2022-12-18T00:01:22.821Z,11.30
2022-12-18T00:06:27.889Z,10.43
2022-12-18T00:11:32.460Z,10.18
2022-12-18T00:16:38.211Z,6.35
2022-12-18T00:21:41.764Z,9.27
2022-12-18T00:26:45.329Z,11.02
2022-12-18T00:31:48.491Z,11.02
2022-12-18T00:36:51.880Z,10.57
2022-12-18T00:42:13.542Z,9.85
2022-12-18T00:47:16.634Z,10.27
2022-12-18T00:52:19.729Z,7.05
2022-12-18T00:57:22.763Z,8.02
2022-12-18T01:02:26.034Z,11.05
2022-12-18T01:07:29.399Z,11.38
2022-12-18T01:12:32.512Z,11.00
2022-12-18T01:17:36.770Z,10.02
2022-12-18T01:22:40.281Z,9.70
2022-12-18T01:27:44.634Z,11.50
2022-12-18T01:32:47.657Z,10.75
2022-12-18T01:37:50.647Z,11.15
2022-12-18T01:42:54.539Z,11.23
2022-12-18T01:48:06.606Z,12.15
2022-12-18T01:53:15.519Z,14.50
2022-12-18T01:58:19.528Z,12.85
2022-12-18T02:03:22.722Z,12.82
2022-12-18T02:08:38.367Z,12.85
2022-12-18T02:14:17.566Z,12.60
2022-12-18T02:19:41.679Z,8.43
2022-12-18T02:25:30.702Z,8.48
2022-12-18T02:30:37.308Z,9.75
2022-12-18T02:35:42.908Z,9.75
2022-12-18T02:40:47.294Z,10.02
2022-12-18T02:45:59.861Z,12.35
2022-12-18T02:51:19.046Z,11.75
2022-12-18T02:56:36.651Z,14.48
2022-12-18T03:01:56.224Z,13.18
2022-12-18T03:07:04.367Z,13.32
2022-12-18T03:12:36.771Z,13.38
2022-12-18T03:17:46.211Z,13.35
2022-12-18T03:22:58.834Z,11.77
2022-12-18T03:28:06.659Z,14.27
2022-12-18T03:33:19.167Z,12.10
2022-12-18T03:38:24.489Z,11.48
2022-12-18T03:43:45.134Z,10.88
2022-12-18T03:48:53.215Z,12.60
2022-12-18T03:54:02.964Z,11.23
2022-12-18T03:59:13.884Z,12.07
2022-12-18T04:04:19.511Z,12.98
2022-12-18T04:09:23.129Z,13.40
2022-12-18T04:14:27.428Z,12.95
2022-12-18T04:19:32.913Z,12.18
2022-12-18T04:24:38.164Z,12.13
2022-12-18T04:29:52.115Z,14.00
2022-12-18T04:34:55.528Z,11.95
2022-12-18T04:39:58.687Z,13.25
2022-12-18T04:45:10.707Z,13.15
2022-12-18T04:50:13.855Z,9.65
2022-12-18T04:55:17.031Z,12.27
2022-12-18T05:00:21.055Z,14.27
2022-12-18T05:05:24.216Z,12.07
2022-12-18T05:10:27.293Z,12.68
2022-12-18T05:15:32.647Z,12.43
2022-12-18T05:20:35.807Z,12.77
2022-12-18T05:25:38.856Z,11.23
2022-12-18T05:30:44.779Z,9.18
2022-12-18T05:35:55.117Z,8.68
2022-12-18T05:40:58.690Z,10.95
2022-12-18T05:46:09.050Z,12.48
2022-12-18T05:51:15.835Z,12.35
2022-12-18T05:56:21.722Z,12.27
2022-12-18T06:01:27.741Z,12.43
2022-12-18T06:06:30.949Z,13.93
2022-12-18T06:11:34.006Z,12.93
2022-12-18T06:16:37.293Z,12.45
2022-12-18T06:21:40.323Z,12.93
2022-12-18T06:26:43.389Z,12.07
2022-12-18T06:31:46.923Z,13.60
2022-12-18T06:36:50.081Z,13.13
2022-12-18T06:41:53.074Z,14.07
2022-12-18T06:46:56.725Z,13.18
2022-12-18T06:51:59.804Z,15.48
2022-12-18T06:57:02.851Z,13.77
2022-12-18T07:08:08.721Z,12.07
2022-12-18T07:18:35.752Z,11.02
2022-12-18T07:23:39.206Z,10.32
2022-12-18T07:28:43.367Z,8.25
2022-12-18T07:33:47.113Z,11.07
2022-12-18T07:38:51.324Z,11.00
2022-12-18T07:49:00.024Z,10.35
2022-12-18T07:54:03.111Z,12.00
2022-12-18T07:59:06.183Z,9.50
2022-12-18T08:04:17.826Z,10.52
2022-12-18T08:09:20.850Z,10.18
2022-12-18T08:14:24.191Z,12.57
2022-12-18T08:19:27.206Z,12.57
2022-12-18T08:24:30.289Z,11.02
2022-12-18T08:29:33.408Z,11.60
2022-12-18T08:34:36.678Z,11.68
2022-12-18T08:39:39.798Z,11.32
2022-12-18T08:44:42.875Z,11.82
2022-12-18T08:49:45.921Z,11.18
2022-12-18T08:54:49.038Z,10.32
2022-12-18T08:59:52.127Z,11.45
2022-12-18T09:04:57.632Z,11.18
2022-12-18T09:10:00.956Z,9.80
2022-12-18T09:15:06.422Z,11.32
2022-12-18T09:20:09.812Z,11.18
2022-12-18T09:25:12.879Z,9.73
2022-12-18T09:30:16.046Z,11.15
2022-12-18T09:35:19.123Z,12.55
2022-12-18T09:40:26.936Z,10.52
2022-12-18T09:45:36.984Z,10.65
2022-12-18T09:50:41.925Z,8.65
2022-12-18T09:55:47.885Z,8.32
2022-12-18T10:00:53.920Z,9.25
2022-12-18T10:06:18.010Z,12.40
2022-12-18T10:12:02.901Z,13.00
2022-12-18T10:17:23.822Z,10.30
2022-12-18T10:22:45.914Z,11.45
2022-12-18T10:27:52.816Z,11.20
2022-12-18T10:32:57.454Z,12.13
2022-12-18T10:38:13.790Z,10.13
2022-12-18T10:43:22.134Z,9.38
2022-12-18T10:48:25.975Z,12.85
2022-12-18T10:53:32.034Z,9.75
2022-12-18T10:58:37.491Z,10.80
2022-12-18T11:03:45.991Z,10.90
2022-12-18T11:09:19.499Z,9.85
2022-12-18T11:14:33.869Z,10.93
2022-12-18T11:19:39.289Z,8.90
2022-12-18T11:29:47.044Z,7.63
2022-12-18T11:34:59.140Z,9.63
2022-12-18T11:40:11.864Z,10.80
2022-12-18T11:45:15.929Z,10.52
2022-12-18T11:50:44.076Z,11.75
2022-12-18T11:56:25.348Z,11.85
2022-12-18T12:01:44.204Z,13.73
2022-12-18T12:07:12.485Z,10.77
2022-12-18T12:12:49.382Z,13.05
2022-12-18T12:18:14.714Z,8.55
2022-12-18T12:23:45.940Z,11.65
2022-12-18T12:28:54.747Z,12.80
2022-12-18T12:34:18.733Z,14.07
2022-12-18T12:39:31.665Z,13.20
2022-12-18T12:44:45.643Z,11.25
2022-12-18T12:49:51.954Z,12.93
2022-12-18T12:54:55.983Z,15.10
2022-12-18T13:00:06.779Z,12.63
2022-12-18T13:05:31.934Z,14.13
2022-12-18T13:10:38.225Z,15.07
2022-12-18T13:15:49.721Z,14.60
2022-12-18T13:26:33.474Z,17.33
2022-12-18T13:31:42.527Z,19.50
2022-12-18T13:42:32.777Z,20.13
2022-12-18T13:47:41.773Z,18.05
2022-12-18T13:52:45.239Z,17.13
2022-12-18T13:57:48.335Z,15.48
2022-12-18T14:02:53.101Z,18.17
2022-12-18T14:08:01.268Z,17.00
2022-12-18T14:13:08.417Z,17.02
2022-12-18T14:18:21.193Z,16.80
2022-12-18T14:23:38.000Z,15.65
2022-12-18T14:28:50.357Z,16.90
2022-12-18T14:33:54.610Z,15.70
2022-12-18T14:38:59.281Z,13.88
2022-12-18T14:44:08.288Z,14.80
2022-12-18T14:49:33.986Z,15.25
2022-12-18T14:54:38.860Z,15.07
2022-12-18T14:59:41.968Z,15.82
2022-12-18T15:04:45.283Z,15.00
2022-12-18T15:10:15.683Z,16.60
2022-12-18T15:15:37.344Z,16.33
2022-12-18T15:20:53.834Z,18.42
2022-12-18T15:26:00.130Z,16.63
2022-12-18T15:31:08.282Z,18.48
2022-12-18T15:36:14.608Z,17.63
2022-12-18T15:41:24.673Z,18.73
2022-12-18T15:46:28.894Z,17.58
2022-12-18T15:51:38.067Z,17.38
2022-12-18T15:56:59.721Z,17.02
2022-12-18T16:02:02.842Z,16.33
2022-12-18T16:07:14.910Z,16.45
2022-12-18T16:12:22.405Z,18.60
2022-12-18T16:17:25.468Z,16.55
2022-12-18T16:22:30.782Z,18.27
2022-12-18T16:27:33.979Z,17.58
2022-12-18T16:32:41.983Z,18.25
2022-12-18T16:37:45.557Z,21.05
2022-12-18T16:42:48.677Z,18.75
2022-12-18T16:47:52.899Z,20.17
2022-12-18T16:52:56.102Z,19.15
2022-12-18T16:57:59.238Z,18.77
2022-12-18T17:03:02.310Z,17.55
2022-12-18T17:08:06.048Z,20.00
2022-12-18T17:13:21.378Z,17.00
2022-12-18T17:18:28.530Z,20.30
2022-12-18T17:23:34.519Z,20.50
2022-12-18T17:28:39.030Z,18.45
2022-12-18T17:33:42.583Z,15.25
2022-12-18T17:38:53.499Z,18.88
2022-12-18T17:44:05.980Z,18.50
2022-12-18T17:49:11.018Z,17.58
2022-12-18T17:54:20.424Z,17.00
2022-12-18T17:59:23.580Z,17.08
2022-12-18T18:04:26.670Z,17.02
2022-12-18T18:09:32.043Z,16.73
2022-12-18T18:14:35.190Z,15.25
2022-12-18T18:19:38.336Z,15.52
2022-12-18T18:24:44.032Z,16.45
2022-12-18T18:29:50.142Z,14.57
2022-12-18T18:34:53.250Z,15.82
2022-12-18T18:39:57.287Z,15.57
2022-12-18T18:45:02.975Z,14.63
2022-12-18T18:50:10.531Z,16.17
2022-12-18T18:55:24.051Z,16.95
2022-12-18T19:00:28.931Z,16.30
2022-12-18T19:05:32.613Z,19.20
2022-12-18T19:10:41.096Z,13.27
2022-12-18T19:15:46.264Z,17.15
2022-12-18T19:21:01.124Z,14.05
2022-12-18T19:31:35.464Z,15.23
2022-12-18T19:36:40.606Z,15.25
2022-12-18T19:41:44.683Z,15.65
2022-12-18T19:46:51.848Z,15.82
2022-12-18T19:56:57.619Z,15.48
2022-12-18T20:02:00.776Z,13.02
2022-12-18T20:07:03.926Z,11.77
2022-12-18T20:12:07.214Z,11.52
2022-12-18T20:17:10.245Z,9.00
2022-12-18T20:22:13.772Z,9.10
2022-12-18T20:27:19.570Z,8.60
2022-12-18T20:32:22.801Z,7.53
2022-12-18T20:37:25.970Z,7.05
2022-12-18T20:42:30.131Z,7.32
2022-12-18T20:47:33.175Z,6.63
2022-12-18T20:52:36.218Z,6.15
2022-12-18T20:57:39.397Z,6.25
2022-12-18T21:02:42.685Z,5.85
2022-12-18T21:07:45.848Z,5.45
2022-12-18T21:12:58.852Z,7.18
2022-12-18T21:18:05.166Z,6.88
2022-12-18T21:23:16.476Z,6.90
2022-12-18T21:28:20.035Z,5.93
2022-12-18T21:33:23.237Z,7.13
2022-12-18T21:38:28.713Z,5.32
2022-12-18T21:43:50.361Z,5.97
2022-12-18T21:48:53.414Z,5.32
2022-12-18T21:53:56.558Z,5.00
2022-12-18T21:58:59.617Z,4.22
2022-12-18T22:04:02.943Z,4.50
2022-12-18T22:09:06.639Z,4.00
2022-12-18T22:14:47.472Z,4.05
2022-12-18T22:19:48.612Z,3.67
2022-12-18T22:24:52.639Z,3.60
2022-12-18T22:30:04.797Z,2.90
2022-12-18T22:35:14.311Z,3.13
2022-12-18T22:40:24.659Z,3.17
2022-12-18T22:45:28.625Z,2.90
2022-12-18T22:50:34.050Z,3.13
2022-12-18T23:01:02.670Z,2.63
2022-12-18T23:06:07.385Z,2.03
2022-12-18T23:11:11.824Z,2.33
2022-12-18T23:16:17.184Z,1.80
2022-12-18T23:21:21.240Z,1.52
2022-12-18T23:26:33.094Z,1.90
2022-12-18T23:31:38.867Z,1.65
2022-12-18T23:36:46.258Z,1.80
2022-12-18T23:41:49.824Z,1.83
2022-12-18T23:46:53.152Z,2.10
2022-12-18T23:51:56.283Z,1.92
2022-12-18T23:56:59.463Z,1.88
